Time;durP1;ratioP1;P1;durP2;ratioP2;P2;SDS_P1;SDS_P2;PMS_P1;PMS_P2;Temp;Humidity;BMP_temperature;BMP_pressure;BME280_temperature;BME280_humidity;BME280_pressure;Samples;Min_cycle;Max_cycle;Signal;HPM_P1;HPM_P2
2024/01/31 00:00:20;;;;;;;0.10;0.10;;;;;;;-3.36;76.86;98925.13;4986534;28;20129;-67
2024/01/31 00:02:47;;;;;;;0.17;0.17;;;;;;;-3.49;77.36;98839.53;4988613;28;20065;-67
2024/01/31 00:05:14;;;;;;;0.20;0.20;;;;;;;-4.24;77.25;98732.22;4987750;28;20145;-67
2024/01/31 00:07:43;;;;;;;0.10;0.10;;;;;;;-3.36;77.98;98870.94;4988199;28;20065;-67
2024/01/31 00:10:11;;;;;;;0.10;0.10;;;;;;;-3.36;77.90;98862.81;4987950;28;20046;-67
2024/01/31 00:12:38;;;;;;;0.20;0.20;;;;;;;-3.36;78.00;98860.13;4988170;28;20142;-67
2024/01/31 00:15:05;;;;;;;0.20;0.20;;;;;;;-3.37;77.87;98858.47;4988121;28;20055;-66
2024/01/31 00:17:32;;;;;;;0.10;0.10;;;;;;;-3.30;78.16;98864.56;4986651;28;20084;-66
2024/01/31 00:19:59;;;;;;;0.20;0.20;;;;;;;-3.30;78.05;98865.41;4987294;28;20066;-68
2024/01/31 00:22:26;;;;;;;0.10;0.10;;;;;;;-4.06;78.29;98747.53;4987810;28;20512;-67
2024/01/31 00:24:53;;;;;;;0.10;0.10;;;;;;;-3.37;78.59;98864.69;4987505;28;20897;-67
2024/01/31 00:27:19;;;;;;;0.10;0.10;;;;;;;-3.26;78.09;98876.59;4987786;28;20082;-67
2024/01/31 00:29:46;;;;;;;0.10;0.10;;;;;;;-3.29;77.45;98871.66;4987628;28;20057;-67
2024/01/31 00:32:13;;;;;;;0.10;0.10;;;;;;;-3.34;77.28;98875.09;4988101;28;20050;-67
2024/01/31 00:34:40;;;;;;;0.20;0.20;;;;;;;-3.67;77.38;98803.63;4987874;28;20067;-67
2024/01/31 00:37:06;;;;;;;0.20;0.20;;;;;;;-3.70;76.96;98809.53;4987503;28;20054;-68
2024/01/31 00:39:34;;;;;;;0.10;0.10;;;;;;;-3.40;77.42;98858.97;4986490;28;20062;-66
2024/01/31 00:42:01;;;;;;;0.20;0.20;;;;;;;-3.45;77.27;98862.38;4987740;28;21911;-67
2024/01/31 00:44:27;;;;;;;0.20;0.20;;;;;;;-3.68;76.87;98843.41;4987939;28;20105;-67
2024/01/31 00:46:54;;;;;;;0.15;0.15;;;;;;;-3.40;77.19;98880.63;4985854;28;20054;-68
2024/01/31 00:49:21;;;;;;;0.20;0.20;;;;;;;-3.40;77.25;98865.19;4987104;28;20137;-67
2024/01/31 00:51:52;;;;;;;0.17;0.17;;;;;;;-3.36;77.51;98866.38;4987309;28;20047;-67
2024/01/31 00:54:20;;;;;;;0.13;0.13;;;;;;;-3.68;77.15;98834.44;4987555;28;20054;-67
2024/01/31 00:56:47;;;;;;;0.10;0.10;;;;;;;-3.56;77.87;98865.91;4986071;28;20101;-68
2024/01/31 00:59:13;;;;;;;0.17;0.17;;;;;;;-3.55;77.85;98861.31;4987332;28;20050;-67
2024/01/31 01:01:40;;;;;;;0.10;0.10;;;;;;;-3.63;78.00;98853.53;4984465;28;20051;-67
2024/01/31 01:04:07;;;;;;;0.10;0.10;;;;;;;-3.74;77.61;98854.34;4986222;28;20081;-67
2024/01/31 01:06:34;;;;;;;0.20;0.20;;;;;;;-3.85;77.90;98855.16;4987371;28;20105;-68
2024/01/31 01:09:01;;;;;;;0.10;0.10;;;;;;;-3.87;78.82;98858.09;4987360;28;20061;-68
2024/01/31 01:11:31;;;;;;;0.10;0.10;;;;;;;-4.13;79.05;98836.09;4986884;28;20529;-67
2024/01/31 01:13:58;;;;;;;0.10;0.10;;;;;;;-4.42;79.52;98783.69;4985427;28;20047;-67
2024/01/31 01:16:25;;;;;;;0.15;0.15;;;;;;;-4.54;79.94;98784.72;4985612;28;20056;-67
2024/01/31 01:18:52;;;;;;;0.10;0.10;;;;;;;-4.33;79.58;98805.84;4642113;28;10001791;-68
2024/01/31 01:21:19;;;;;;;0.10;0.10;;;;;;;-4.06;79.34;98853.03;3957348;28;5002184;-67
2024/01/31 01:23:46;;;;;;;0.17;0.17;;;;;;;-7.19;79.09;98344.88;4457795;28;5001986;-67
2024/01/31 01:26:14;;;;;;;0.20;0.20;;;;;;;-4.78;79.68;98765.75;4975886;28;20074;-68
2024/01/31 01:28:43;;;;;;;0.10;0.10;;;;;;;-4.14;79.34;98851.47;4967860;28;20058;-67
2024/01/31 01:31:11;;;;;;;0.10;0.10;;;;;;;-4.63;78.83;98760.72;4967103;28;20516;-67
2024/01/31 01:33:37;;;;;;;0.10;0.10;;;;;;;-4.13;78.62;98836.09;4967523;28;20046;-66
2024/01/31 01:36:05;;;;;;;0.10;0.10;;;;;;;-4.16;78.55;98852.78;4965950;28;20055;-67
2024/01/31 01:38:32;;;;;;;0.10;0.10;;;;;;;-4.50;78.78;98791.34;4965999;28;20061;-68
2024/01/31 01:40:59;;;;;;;0.13;0.13;;;;;;;-4.61;78.62;98795.63;4967567;28;20054;-67
2024/01/31 01:43:25;;;;;;;0.10;0.10;;;;;;;-4.54;78.28;98790.13;4965757;28;20059;-69
2024/01/31 01:46:01;;;;;;;0.20;0.20;;;;;;;-4.21;78.61;98844.53;4979220;28;20054;-69
2024/01/31 01:48:27;;;;;;;0.10;0.10;;;;;;;-4.27;78.83;98850.88;4986683;28;20092;-69
2024/01/31 01:50:54;;;;;;;0.10;0.10;;;;;;;-4.82;78.68;98740.22;4977877;28;20636;-66
2024/01/31 01:53:21;;;;;;;0.15;0.15;;;;;;;-4.19;79.42;98831.59;4986500;28;20096;-65
2024/01/31 01:55:48;;;;;;;0.10;0.10;;;;;;;-5.29;79.54;98651.19;4985098;28;20061;-66
2024/01/31 01:58:16;;;;;;;0.10;0.10;;;;;;;-4.23;78.84;98827.69;4986439;28;20046;-68
2024/01/31 02:00:44;;;;;;;0.10;0.10;;;;;;;-4.10;78.49;98851.84;4986172;28;20050;-69
2024/01/31 02:03:13;;;;;;;0.10;0.10;;;;;;;-4.44;77.88;98807.44;4984729;28;20137;-64
2024/01/31 02:05:39;;;;;;;0.10;0.10;;;;;;;-4.51;78.89;98816.72;4986160;28;20057;-68
2024/01/31 02:08:06;;;;;;;0.10;0.10;;;;;;;-5.30;79.27;98677.38;4986301;28;20343;-68
2024/01/31 02:10:34;;;;;;;0.10;0.10;;;;;;;-4.26;79.60;98830.88;4985927;28;20086;-65
2024/01/31 02:13:00;;;;;;;0.10;0.10;;;;;;;-4.29;79.83;98825.94;4984904;28;20314;-68
2024/01/31 02:15:27;;;;;;;0.10;0.10;;;;;;;-4.40;80.26;98829.44;4984831;28;20132;-65
2024/01/31 02:17:54;;;;;;;0.10;0.10;;;;;;;-4.26;80.13;98814.66;4985907;28;20058;-68
2024/01/31 02:20:22;;;;;;;0.10;0.10;;;;;;;-4.78;79.86;98738.72;4985511;28;20527;-69
2024/01/31 02:22:49;;;;;;;0.10;0.10;;;;;;;-4.56;79.53;98782.25;4984760;28;20058;-68
2024/01/31 02:25:16;;;;;;;0.10;0.10;;;;;;;-4.35;79.88;98810.63;4985612;28;20061;-65
2024/01/31 02:27:43;;;;;;;0.10;0.10;;;;;;;-4.42;80.21;98812.59;4985890;28;20054;-65
2024/01/31 02:30:10;;;;;;;0.10;0.10;;;;;;;-4.35;80.80;98810.63;4985544;28;20074;-65
2024/01/31 02:32:37;;;;;;;0.13;0.13;;;;;;;-4.60;80.85;98761.34;4985576;28;20560;-64
2024/01/31 02:35:05;;;;;;;0.10;0.10;;;;;;;-5.00;80.63;98694.38;4983788;28;20054;-65
2024/01/31 02:37:31;;;;;;;0.17;0.17;;;;;;;-4.25;79.60;98794.69;4984256;28;20081;-64
2024/01/31 02:39:59;;;;;;;0.10;0.10;;;;;;;-4.34;80.12;98802.28;4985250;28;20046;-65
2024/01/31 02:42:26;;;;;;;0.10;0.10;;;;;;;-4.67;79.33;98739.81;4985424;28;20057;-68
2024/01/31 02:44:53;;;;;;;0.10;0.10;;;;;;;-4.66;79.45;98744.97;4985659;28;20364;-68
2024/01/31 02:47:20;;;;;;;0.10;0.10;;;;;;;-4.34;79.36;98812.28;4983906;28;20069;-65
2024/01/31 02:49:46;;;;;;;0.10;0.10;;;;;;;-4.43;79.32;98794.75;4984955;28;20505;-66
2024/01/31 02:52:13;;;;;;;0.10;0.10;;;;;;;-4.48;79.75;98800.84;4983902;28;20062;-69
2024/01/31 02:54:40;;;;;;;0.10;0.10;;;;;;;-4.38;79.38;98805.69;4984759;28;20066;-68
2024/01/31 02:57:07;;;;;;;0.17;0.17;;;;;;;-4.38;79.44;98800.28;4985463;28;20050;-68
2024/01/31 02:59:34;;;;;;;0.10;0.10;;;;;;;-4.53;79.69;98780.97;4985324;28;20406;-69
2024/01/31 03:02:02;;;;;;;0.10;0.10;;;;;;;-4.43;80.84;98767.72;4985264;28;20061;-66
2024/01/31 03:04:29;;;;;;;0.10;0.10;;;;;;;-4.15;80.32;98800.31;4985164;28;20065;-65
2024/01/31 03:06:56;;;;;;;0.10;0.10;;;;;;;-4.20;79.84;98803.72;4985139;28;20505;-65
2024/01/31 03:09:22;;;;;;;0.10;0.10;;;;;;;-4.21;80.20;98790.44;4985003;28;20050;-66
2024/01/31 03:11:49;;;;;;;0.10;0.10;;;;;;;-4.17;79.89;98797.03;4985114;28;20459;-65
2024/01/31 03:14:16;;;;;;;0.20;0.20;;;;;;;-4.13;79.60;98792.78;4984665;28;20065;-69
2024/01/31 03:16:43;;;;;;;0.10;0.10;;;;;;;-5.05;79.13;98637.53;4984919;28;20148;-69
2024/01/31 03:19:10;;;;;;;0.10;0.10;;;;;;;-4.36;79.29;98754.91;4982488;28;20054;-69
2024/01/31 03:21:37;;;;;;;0.10;0.10;;;;;;;-4.34;79.26;98763.59;4965277;28;20511;-68
2024/01/31 03:24:04;;;;;;;0.10;0.10;;;;;;;-4.65;78.87;98738.50;4965141;28;20050;-65
2024/01/31 03:26:31;;;;;;;0.10;0.10;;;;;;;-4.15;78.60;98789.50;4965295;28;20070;-69
2024/01/31 03:29:01;;;;;;;0.10;0.10;;;;;;;-4.16;78.03;98787.84;4965537;28;20039;-68
2024/01/31 03:31:28;;;;;;;0.10;0.10;;;;;;;-4.25;77.97;98783.84;4965433;28;20141;-65
2024/01/31 03:33:55;;;;;;;0.10;0.10;;;;;;;-4.33;77.94;98792.31;4965527;28;20449;-65
2024/01/31 03:36:22;;;;;;;0.10;0.10;;;;;;;-4.39;78.20;98820.28;4965285;28;20137;-68
2024/01/31 03:38:48;;;;;;;0.10;0.10;;;;;;;-4.76;78.87;98733.91;4965596;28;20448;-65
2024/01/31 03:41:15;;;;;;;0.10;0.10;;;;;;;-4.86;78.62;98706.63;4963743;28;20059;-68
2024/01/31 03:43:42;;;;;;;0.10;0.10;;;;;;;-4.91;78.63;98722.72;4965492;28;20524;-65
2024/01/31 03:46:09;;;;;;;0.10;0.10;;;;;;;-4.48;78.56;98783.78;4963635;28;20113;-65
2024/01/31 03:48:36;;;;;;;0.10;0.10;;;;;;;-4.53;78.55;98786.38;4964942;28;20046;-68
2024/01/31 03:51:03;;;;;;;0.10;0.10;;;;;;;-4.59;79.06;98787.28;4965316;28;20081;-65
2024/01/31 03:53:29;;;;;;;0.10;0.10;;;;;;;-4.62;79.62;98784.00;4965547;28;20137;-67
2024/01/31 03:55:56;;;;;;;0.10;0.10;;;;;;;-5.04;79.92;98709.41;4963443;28;20057;-68
2024/01/31 03:58:23;;;;;;;0.10;0.10;;;;;;;-4.71;80.15;98762.97;4963656;28;20059;-69
2024/01/31 04:00:50;;;;;;;0.10;0.10;;;;;;;-4.82;79.85;98739.44;4965051;28;20051;-68
2024/01/31 04:03:20;;;;;;;0.10;0.10;;;;;;;-4.94;79.97;98747.50;4964844;28;20058;-68
2024/01/31 04:05:48;;;;;;;0.10;0.10;;;;;;;-5.51;79.89;98669.78;4963752;28;20059;-65
2024/01/31 04:08:16;;;;;;;0.10;0.10;;;;;;;-5.00;80.44;98748.41;4964957;28;20051;-65
2024/01/31 04:10:42;;;;;;;0.10;0.10;;;;;;;-4.89;81.15;98788.16;4965185;28;20050;-68
2024/01/31 04:13:09;;;;;;;0.10;0.10;;;;;;;-4.87;81.23;98786.03;4965053;28;20153;-68
2024/01/31 04:15:36;;;;;;;0.10;0.10;;;;;;;-5.39;80.56;98686.84;4964466;28;20146;-69
2024/01/31 04:18:03;;;;;;;0.10;0.10;;;;;;;-4.75;80.37;98776.09;4964610;28;20054;-66
2024/01/31 04:20:30;;;;;;;0.10;0.10;;;;;;;-5.56;81.21;98696.63;4975610;28;20054;-68
2024/01/31 04:22:57;;;;;;;0.10;0.10;;;;;;;-5.93;81.42;98643.81;4984332;28;20497;-65
2024/01/31 04:25:24;;;;;;;0.10;0.10;;;;;;;-4.87;81.68;98780.63;4984088;28;20058;-66
2024/01/31 04:27:51;;;;;;;0.10;0.10;;;;;;;-4.73;81.33;98776.69;4984321;28;20061;-68
2024/01/31 04:30:18;;;;;;;0.10;0.10;;;;;;;-4.75;80.83;98781.50;4982652;28;20478;-68
2024/01/31 04:32:45;;;;;;;0.10;0.10;;;;;;;-4.80;80.16;98775.97;4982897;28;20676;-64
2024/01/31 04:35:12;;;;;;;0.10;0.10;;;;;;;-5.11;80.63;98718.66;4985033;28;20153;-64
2024/01/31 04:37:39;;;;;;;0.10;0.10;;;;;;;-4.89;81.18;98780.06;4988247;28;20149;-68
2024/01/31 04:40:07;;;;;;;0.10;0.10;;;;;;;-5.31;81.33;98718.91;4987712;28;20112;-69
2024/01/31 04:42:34;;;;;;;0.10;0.10;;;;;;;-4.82;81.14;98778.06;4986119;28;20204;-68
2024/01/31 04:45:01;;;;;;;0.10;0.10;;;;;;;-4.81;80.14;98785.13;4987327;28;20059;-68
2024/01/31 04:47:28;;;;;;;0.10;0.10;;;;;;;-4.79;79.64;98782.22;4987110;28;20137;-69
2024/01/31 04:49:56;;;;;;;0.10;0.10;;;;;;;-6.22;79.55;98552.91;4987504;28;20129;-64
2024/01/31 04:52:23;;;;;;;0.20;0.20;;;;;;;-4.89;80.36;98782.75;4987868;28;20523;-64
2024/01/31 04:54:53;;;;;;;0.10;0.10;;;;;;;-4.87;80.13;98779.81;4988053;28;20496;-69
2024/01/31 04:57:20;;;;;;;0.10;0.10;;;;;;;-4.85;79.41;98783.94;4985608;28;20050;-64
2024/01/31 04:59:46;;;;;;;0.10;0.10;;;;;;;-5.28;79.46;98713.06;4987302;28;20428;-68
2024/01/31 05:02:13;;;;;;;0.10;0.10;;;;;;;-5.86;79.21;98614.88;4987196;28;20058;-68
2024/01/31 05:04:40;;;;;;;0.10;0.10;;;;;;;-4.80;79.17;98775.13;4985799;28;20047;-64
2024/01/31 05:07:07;;;;;;;0.10;0.10;;;;;;;-4.95;79.59;98759.34;4987516;28;20173;-64
2024/01/31 05:09:34;;;;;;;0.10;0.10;;;;;;;-5.51;79.48;98661.69;4987470;28;20050;-64
2024/01/31 05:12:01;;;;;;;0.10;0.10;;;;;;;-4.75;79.67;98789.63;4987039;28;20082;-64
2024/01/31 05:14:28;;;;;;;0.10;0.10;;;;;;;-4.86;79.87;98793.09;4987327;28;20124;-68
2024/01/31 05:16:55;;;;;;;0.10;0.10;;;;;;;-5.26;80.21;98716.38;4985363;28;20055;-64
2024/01/31 05:19:22;;;;;;;0.10;0.10;;;;;;;-4.73;79.89;98819.91;4983733;28;20800;-69
2024/01/31 05:21:55;;;;;;;0.10;0.10;;;;;;;-4.89;79.83;98761.16;4966251;28;20065;-68
2024/01/31 05:24:21;;;;;;;0.10;0.10;;;;;;;-5.31;80.06;98708.13;4966616;28;20054;-68
2024/01/31 05:26:50;;;;;;;0.10;0.10;;;;;;;-4.78;79.59;98790.09;4978724;28;20046;-68
2024/01/31 05:29:17;;;;;;;0.10;0.10;;;;;;;-6.04;78.75;98571.75;4978183;28;20582;-64
2024/01/31 05:31:44;;;;;;;0.10;0.10;;;;;;;-4.73;78.60;98787.50;4993669;28;20046;-68
2024/01/31 05:34:11;;;;;;;0.10;0.10;;;;;;;-5.31;78.00;98697.31;4986530;28;20062;-68
2024/01/31 05:36:37;;;;;;;0.10;0.10;;;;;;;-5.89;78.20;98587.50;4985121;28;20116;-68
2024/01/31 05:39:04;;;;;;;0.10;0.10;;;;;;;-5.50;78.47;98676.81;4986920;28;20050;-68
2024/01/31 05:41:31;;;;;;;0.10;0.10;;;;;;;-4.73;78.83;98781.28;4985898;28;20046;-63
2024/01/31 05:43:58;;;;;;;0.10;0.10;;;;;;;-5.22;79.07;98693.25;4986725;28;20113;-68
2024/01/31 05:46:25;;;;;;;0.10;0.10;;;;;;;-7.49;78.11;98292.88;4985725;28;20046;-64
2024/01/31 05:48:52;;;;;;;0.10;0.10;;;;;;;-4.55;79.02;98799.31;4986242;28;20050;-67
2024/01/31 05:51:19;;;;;;;0.10;0.10;;;;;;;-5.52;78.60;98621.44;4986394;28;20451;-65
2024/01/31 05:53:45;;;;;;;0.10;0.10;;;;;;;-7.66;78.77;98270.31;4986471;28;20602;-65
2024/01/31 05:56:12;;;;;;;0.10;0.10;;;;;;;-4.40;78.38;98791.56;4986285;28;20061;-64
2024/01/31 05:58:39;;;;;;;0.10;0.10;;;;;;;-4.99;77.62;98717.63;4986277;28;20142;-67
2024/01/31 06:01:06;;;;;;;0.10;0.10;;;;;;;-6.37;77.63;98490.50;4986211;28;20050;-67
2024/01/31 06:03:33;;;;;;;0.10;0.10;;;;;;;-4.57;77.92;98763.56;4984999;28;20064;-64
2024/01/31 06:06:00;;;;;;;0.10;0.10;;;;;;;-4.53;77.78;98770.16;4985854;28;20325;-67
2024/01/31 06:08:26;;;;;;;0.10;0.10;;;;;;;-4.32;78.17;98869.66;4986066;28;20053;-67
2024/01/31 06:10:54;;;;;;;0.17;0.17;;;;;;;-4.93;78.11;98678.88;4986200;28;20180;-67
2024/01/31 06:13:21;;;;;;;0.10;0.10;;;;;;;-4.60;78.03;98750.53;4986496;28;20145;-64
2024/01/31 06:15:48;;;;;;;0.10;0.10;;;;;;;-4.95;77.69;98645.88;4984573;28;20058;-64
2024/01/31 06:18:15;;;;;;;0.10;0.10;;;;;;;-4.95;77.80;98626.16;4985743;28;20416;-67
2024/01/31 06:20:44;;;;;;;0.10;0.10;;;;;;;-4.01;77.72;98856.69;4974122;28;20117;-67
2024/01/31 06:23:11;;;;;;;0.20;0.20;;;;;;;-4.51;76.90;98676.13;4966156;28;20390;-67
2024/01/31 06:25:38;;;;;;;0.10;0.10;;;;;;;-3.94;76.89;98775.41;4966426;28;20047;-64
2024/01/31 06:28:08;;;;;;;0.15;0.15;;;;;;;-3.69;77.25;98784.09;4964876;28;20054;-67
2024/01/31 06:30:45;;;;;;;0.17;0.17;;;;;;;-3.60;76.52;98755.56;4964842;28;20042;-67
2024/01/31 06:33:12;;;;;;;0.20;0.20;;;;;;;-4.04;76.44;98704.78;4964745;28;20141;-65
2024/01/31 06:35:47;;;;;;;0.20;0.20;;;;;;;-3.25;76.33;98783.41;4964975;28;20433;-67
2024/01/31 06:38:15;;;;;;;0.20;0.20;;;;;;;-3.12;75.02;98785.88;4964985;28;20059;-65
2024/01/31 06:40:41;;;;;;;0.10;0.10;;;;;;;-3.15;74.55;98780.94;4964700;28;20429;-68
2024/01/31 06:43:08;;;;;;;0.20;0.20;;;;;;;-3.04;75.13;98799.03;4965778;28;20055;-69
2024/01/31 06:45:35;;;;;;;0.10;0.10;;;;;;;-4.01;75.48;98587.97;4966190;28;20140;-65
2024/01/31 06:48:03;;;;;;;0.10;0.10;;;;;;;-3.24;73.82;98676.72;4966426;28;20062;-68
2024/01/31 06:50:31;;;;;;;0.20;0.20;;;;;;;-2.66;73.43;98758.56;4965760;28;20068;-67
2024/01/31 06:52:57;;;;;;;0.17;0.17;;;;;;;-3.54;73.01;98576.72;4965813;28;20046;-65
2024/01/31 06:55:25;;;;;;;0.20;0.20;;;;;;;-2.46;72.46;98741.81;4965570;28;20169;-65
2024/01/31 06:57:51;;;;;;;0.20;0.20;;;;;;;-2.51;71.80;98680.16;4966101;28;20050;-68
2024/01/31 07:00:18;;;;;;;0.20;0.20;;;;;;;-1.66;71.50;98789.25;4965796;28;20138;-66
2024/01/31 07:02:45;;;;;;;0.20;0.20;;;;;;;-2.11;71.36;98691.66;4965913;28;20050;-66
2024/01/31 07:05:12;;;;;;;0.10;0.10;;;;;;;-2.00;70.06;98693.44;4965292;28;20360;-67
2024/01/31 07:07:40;;;;;;;0.20;0.20;;;;;;;-1.31;69.12;98735.38;4964511;28;20055;-67
2024/01/31 07:10:07;;;;;;;0.20;0.20;;;;;;;-0.82;69.44;98782.47;4965714;28;20112;-67
2024/01/31 07:12:34;;;;;;;0.20;0.20;;;;;;;-0.56;66.36;98787.09;4965829;28;20125;-69
2024/01/31 07:15:01;;;;;;;0.20;0.20;;;;;;;-0.36;64.53;98782.66;4963881;28;20536;-67
2024/01/31 07:17:29;;;;;;;0.20;0.20;;;;;;;-0.61;64.82;98732.59;4962668;28;20584;-66
2024/01/31 07:19:55;;;;;;;0.20;0.20;;;;;;;-0.18;63.83;98776.03;4967577;28;20046;-66
2024/01/31 07:22:22;;;;;;;0.20;0.20;;;;;;;-0.28;64.19;98762.31;4982131;28;21018;-66
2024/01/31 07:24:49;;;;;;;0.20;0.20;;;;;;;-0.07;65.16;98775.03;4982396;28;20050;-69
2024/01/31 07:27:16;;;;;;;0.20;0.20;;;;;;;-0.30;64.59;98682.81;4981987;28;20076;-67
2024/01/31 07:29:46;;;;;;;0.20;0.20;;;;;;;0.17;63.74;98721.84;4982254;28;20052;-68
2024/01/31 07:32:13;;;;;;;0.20;0.20;;;;;;;0.57;63.25;98760.22;4984652;28;20141;-66
2024/01/31 07:34:39;;;;;;;0.20;0.20;;;;;;;0.16;62.45;98660.22;4983492;28;20092;-66
2024/01/31 07:37:08;;;;;;;0.20;0.20;;;;;;;0.58;61.51;98723.69;4984486;28;20061;-68
2024/01/31 07:39:34;;;;;;;0.20;0.20;;;;;;;1.09;60.84;98752.81;4984454;28;20050;-67
2024/01/31 07:42:01;;;;;;;0.20;0.20;;;;;;;-0.36;61.03;98490.56;4983390;28;20054;-64
2024/01/31 07:44:28;;;;;;;0.20;0.20;;;;;;;1.18;60.44;98718.47;4983353;28;20050;-66
2024/01/31 07:47:02;;;;;;;0.20;0.20;;;;;;;1.53;60.43;98743.09;4984428;28;20051;-68
2024/01/31 07:49:30;;;;;;;0.20;0.20;;;;;;;0.86;59.05;98578.72;4980057;28;20051;-63
2024/01/31 07:51:57;;;;;;;0.20;0.20;;;;;;;1.02;59.28;98585.00;4981456;28;20058;-61
2024/01/31 07:54:24;;;;;;;0.30;0.30;;;;;;;1.45;57.58;98625.44;4981758;28;20097;-63
2024/01/31 07:56:51;;;;;;;0.20;0.20;;;;;;;2.36;57.24;98735.44;4983292;28;20601;-62
2024/01/31 07:59:17;;;;;;;0.20;0.20;;;;;;;2.44;56.70;98737.59;4984081;28;20061;-65
2024/01/31 08:01:44;;;;;;;0.20;0.20;;;;;;;2.45;57.03;98692.78;4983451;28;20060;-61
2024/01/31 08:04:11;;;;;;;0.20;0.20;;;;;;;2.82;56.61;98723.28;4983390;28;20050;-64
2024/01/31 08:06:42;;;;;;;0.25;0.25;;;;;;;2.97;54.67;98736.91;4982443;28;20061;-63
2024/01/31 08:09:09;;;;;;;0.20;0.20;;;;;;;2.02;55.05;98554.03;4981276;28;20448;-66
2024/01/31 08:11:47;;;;;;;0.20;0.20;;;;;;;2.37;54.27;98606.66;4985981;28;20427;-66
2024/01/31 08:14:14;;;;;;;0.30;0.30;;;;;;;3.42;53.54;98728.47;4985662;28;20065;-67
2024/01/31 08:16:41;;;;;;;0.30;0.30;;;;;;;2.92;53.80;98635.69;4986551;28;20057;-69
2024/01/31 08:19:08;;;;;;;0.30;0.30;;;;;;;3.45;54.58;98725.16;4987046;28;20511;-64
2024/01/31 08:21:35;;;;;;;0.30;0.30;;;;;;;3.75;53.57;98760.56;4976931;28;20132;-64
2024/01/31 08:24:02;;;;;;;0.25;0.25;;;;;;;3.62;53.27;98670.78;4985493;28;20046;-63
2024/01/31 08:26:29;;;;;;;0.30;0.30;;;;;;;4.10;52.79;98713.69;4985780;28;20515;-67
2024/01/31 08:28:56;;;;;;;0.20;0.20;;;;;;;3.33;51.86;98582.28;4986811;28;20058;-66
2024/01/31 08:31:40;;;;;;;0.30;0.30;;;;;;;4.33;51.71;98723.91;4983099;28;20038;-65
2024/01/31 08:34:07;;;;;;;0.30;0.30;;;;;;;3.70;50.53;98576.22;4971057;28;20050;-69
2024/01/31 08:36:34;;;;;;;0.30;0.30;;;;;;;3.82;51.15;98669.81;4972074;28;20058;-66
2024/01/31 08:39:01;;;;;;;0.20;0.20;;;;;;;4.45;51.77;98710.63;4966540;28;20073;-64
2024/01/31 08:41:28;;;;;;;0.22;0.22;;;;;;;4.54;51.66;98689.66;4967458;28;20047;-69
2024/01/31 08:43:55;;;;;;;0.30;0.30;;;;;;;4.58;50.81;98698.94;4967807;28;20137;-65
2024/01/31 08:46:21;;;;;;;0.30;0.30;;;;;;;4.21;51.26;98654.09;4965943;28;20513;-72
2024/01/31 08:48:48;;;;;;;0.30;0.30;;;;;;;3.85;51.89;98634.44;4966869;28;20109;-66
2024/01/31 08:51:16;;;;;;;0.30;0.30;;;;;;;4.27;51.84;98642.78;4984446;28;20054;-67
2024/01/31 08:53:59;;;;;;;0.30;0.30;;;;;;;4.80;52.14;98689.38;4985755;28;20057;-73
2024/01/31 08:56:26;;;;;;;0.30;0.30;;;;;;;4.54;51.15;98610.09;4985077;28;20057;-65
2024/01/31 08:58:53;;;;;;;0.30;0.30;;;;;;;4.64;50.23;98598.16;4986809;28;20056;-68
2024/01/31 09:01:20;;;;;;;0.30;0.30;;;;;;;4.60;49.99;98580.63;4985524;28;20082;-63
2024/01/31 09:03:48;;;;;;;0.30;0.30;;;;;;;4.62;50.14;98551.81;4985211;28;20071;-66
2024/01/31 09:06:14;;;;;;;0.30;0.30;;;;;;;5.61;49.68;98673.41;4986059;28;20057;-67
2024/01/31 09:08:42;;;;;;;0.30;0.30;;;;;;;5.69;49.13;98631.50;4986131;28;20045;-68
2024/01/31 09:11:09;;;;;;;0.30;0.30;;;;;;;4.93;49.08;98480.00;4985878;28;20060;-62
2024/01/31 09:13:35;;;;;;;0.35;0.35;;;;;;;6.35;48.44;98662.28;4984671;28;20583;-65
2024/01/31 09:16:05;;;;;;;0.30;0.30;;;;;;;6.48;46.38;98661.44;4984008;28;20046;-61
2024/01/31 09:18:32;;;;;;;0.40;0.40;;;;;;;6.33;43.66;98655.41;4986175;28;20093;-70
2024/01/31 09:21:00;;;;;;;0.32;0.32;;;;;;;6.23;43.23;98603.34;4984534;28;20078;-68
2024/01/31 09:23:27;;;;;;;0.30;0.30;;;;;;;6.66;43.05;98648.72;4965944;28;20055;-61
2024/01/31 09:25:53;;;;;;;0.30;0.30;;;;;;;6.68;44.12;98628.03;4966778;28;20058;-63
2024/01/31 09:28:20;;;;;;;0.30;0.30;;;;;;;5.89;44.66;98527.50;4966474;28;20058;-64
2024/01/31 09:30:47;;;;;;;0.30;0.30;;;;;;;5.42;44.55;98439.03;4966273;28;20046;-63
2024/01/31 09:33:14;;;;;;;0.40;0.40;;;;;;;5.78;44.24;98569.22;4965917;28;20057;-68
2024/01/31 09:35:41;;;;;;;0.40;0.40;;;;;;;6.64;43.51;98627.00;4965478;28;20138;-62
2024/01/31 09:38:07;;;;;;;0.30;0.30;;;;;;;6.51;42.54;98625.09;4966707;28;20055;-69
2024/01/31 09:40:34;;;;;;;0.30;0.30;;;;;;;6.61;42.75;98622.09;4966202;28;20469;-68
2024/01/31 09:43:02;;;;;;;0.40;0.40;;;;;;;6.60;43.00;98614.97;4973064;28;20603;-65
2024/01/31 09:45:31;;;;;;;0.30;0.30;;;;;;;6.07;43.28;98644.06;4985370;28;20493;-67
2024/01/31 09:48:00;;;;;;;0.30;0.30;;;;;;;6.57;43.72;98592.75;4985155;28;20053;-70
2024/01/31 09:50:27;;;;;;;0.35;0.35;;;;;;;6.85;43.20;98584.16;4981877;28;20050;-60
2024/01/31 09:52:57;;;;;;;0.30;0.30;;;;;;;6.72;42.47;98524.41;4985864;28;20046;-63
2024/01/31 09:55:27;;;;;;;0.30;0.30;;;;;;;6.85;42.33;98551.09;4985011;28;20137;-61
2024/01/31 09:57:54;;;;;;;0.30;0.30;;;;;;;6.94;42.26;98524.44;4981730;28;20046;-61
2024/01/31 10:00:24;;;;;;;0.32;0.32;;;;;;;6.95;41.47;98501.31;4967952;28;20477;-63
2024/01/31 10:02:51;;;;;;;0.30;0.30;;;;;;;7.59;41.68;98569.72;4984881;28;20061;-62
2024/01/31 10:05:18;;;;;;;0.30;0.30;;;;;;;6.94;41.65;98433.53;4984588;28;20524;-62
2024/01/31 10:07:45;;;;;;;0.40;0.40;;;;;;;7.48;41.39;98499.41;4985349;28;20086;-62
2024/01/31 10:10:12;;;;;;;0.40;0.40;;;;;;;8.08;40.68;98573.44;4984931;28;20054;-61
2024/01/31 10:12:39;;;;;;;0.40;0.40;;;;;;;7.77;40.24;98522.94;4984986;28;20481;-62
2024/01/31 10:15:09;;;;;;;0.40;0.40;;;;;;;8.10;40.72;98568.41;4973880;28;20082;-64
2024/01/31 10:17:39;;;;;;;0.40;0.40;;;;;;;7.71;40.51;98498.25;4983072;28;20046;-61
2024/01/31 10:20:10;;;;;;;0.40;0.40;;;;;;;8.30;39.85;98548.56;4984884;28;20058;-62
2024/01/31 10:22:39;;;;;;;0.40;0.40;;;;;;;6.94;40.12;98300.53;4984700;28;20050;-62
2024/01/31 10:25:07;;;;;;;0.40;0.40;;;;;;;8.71;39.08;98557.31;4984287;28;20053;-64
2024/01/31 10:27:35;;;;;;;0.50;0.50;;;;;;;8.56;39.31;98508.03;4984756;28;20133;-63
2024/01/31 10:30:07;;;;;;;0.43;0.43;;;;;;;8.78;38.70;98510.66;4984674;28;20477;-68
2024/01/31 10:32:35;;;;;;;0.43;0.43;;;;;;;9.27;38.20;98543.38;4983590;28;20062;-61
2024/01/31 10:35:03;;;;;;;0.40;0.40;;;;;;;8.81;37.64;98449.25;4982739;28;20050;-63
2024/01/31 10:37:50;;;;;;;0.50;0.50;;;;;;;8.93;37.47;98430.06;4984620;28;20089;-61
2024/01/31 10:40:28;;;;;;;0.50;0.50;;;;;;;9.47;35.91;98501.25;4973993;28;20058;-61
2024/01/31 10:42:57;;;;;;;0.40;0.40;;;;;;;9.44;35.22;98518.50;4970861;28;20050;-60
2024/01/31 10:45:25;;;;;;;0.50;0.50;;;;;;;9.63;36.23;98520.91;4979129;28;20054;-66
2024/01/31 10:47:53;;;;;;;0.50;0.50;;;;;;;9.37;34.80;98465.66;4963848;28;20053;-69
2024/01/31 10:50:20;;;;;;;0.40;0.40;;;;;;;9.54;35.30;98512.63;4967373;28;20538;-62
2024/01/31 10:52:49;;;;;;;0.50;0.50;;;;;;;9.64;34.48;98505.94;4996174;28;20050;-68
2024/01/31 10:55:17;;;;;;;0.43;0.43;;;;;;;9.49;35.12;98515.56;4981528;28;20180;-63
2024/01/31 10:57:44;;;;;;;0.50;0.50;;;;;;;9.64;34.66;98506.72;4977162;28;20609;-62
2024/01/31 11:00:25;;;;;;;0.50;0.50;;;;;;;9.30;34.68;98423.84;4982341;28;20054;-61
2024/01/31 11:02:56;;;;;;;0.50;0.50;;;;;;;9.43;34.72;98447.72;4982674;28;20145;-66
2024/01/31 11:05:27;;;;;;;0.43;0.43;;;;;;;9.33;33.95;98423.19;4982679;28;20513;-66
2024/01/31 11:07:55;;;;;;;0.50;0.50;;;;;;;9.62;33.45;98430.75;4981317;28;20077;-67
2024/01/31 11:10:23;;;;;;;0.52;0.52;;;;;;;10.00;32.92;98473.09;4982155;28;20047;-64
2024/01/31 11:12:58;;;;;;;0.50;0.50;;;;;;;9.74;32.64;98500.03;4982431;28;20058;-65
2024/01/31 11:15:32;;;;;;;0.50;0.50;;;;;;;9.31;32.18;98430.97;4982414;28;20042;-67
2024/01/31 11:18:09;;;;;;;0.50;0.50;;;;;;;9.15;31.80;98393.97;4981359;28;20050;-64
2024/01/31 11:20:47;;;;;;;0.50;0.50;;;;;;;9.73;31.91;98477.13;4983087;28;20058;-64
2024/01/31 11:23:23;;;;;;;0.43;0.43;;;;;;;9.85;32.01;98474.47;4980859;28;20054;-63
2024/01/31 11:25:51;;;;;;;0.50;0.50;;;;;;;9.83;31.95;98421.38;4981214;28;20057;-62
2024/01/31 11:28:27;;;;;;;0.50;0.50;;;;;;;10.02;31.08;98466.09;4981748;28;20058;-63
2024/01/31 11:30:54;;;;;;;0.40;0.40;;;;;;;8.52;30.31;98244.72;4979385;28;20527;-62
2024/01/31 11:33:21;;;;;;;0.47;0.47;;;;;;;10.06;31.03;98458.75;4980745;28;20070;-63
2024/01/31 11:35:50;;;;;;;0.47;0.47;;;;;;;10.13;31.39;98455.50;4980634;28;20050;-65
2024/01/31 11:38:17;;;;;;;0.50;0.50;;;;;;;10.13;31.85;98463.81;4982730;28;20140;-63